createdAt,value
2023-04-22T00:01:27.448Z,97762.53
2023-04-22T00:04:15.352Z,97768.19
2023-04-22T00:07:03.111Z,97771.84
2023-04-22T00:09:52.105Z,97761.38
2023-04-22T00:12:40.048Z,97772.50
2023-04-22T00:15:28.145Z,97767.81
2023-04-22T00:18:16.339Z,97765.50
2023-04-22T00:21:03.812Z,97766.66
2023-04-22T00:23:51.247Z,97766.03
2023-04-22T00:26:40.151Z,97769.81
2023-04-22T00:29:27.623Z,97764.81
2023-04-22T00:32:14.986Z,97771.13
2023-04-22T00:35:02.433Z,97764.50
2023-04-22T00:37:49.971Z,97766.47
2023-04-22T00:40:37.594Z,97759.84
2023-04-22T00:43:26.406Z,97761.81
2023-04-22T00:46:15.483Z,97754.00
2023-04-22T00:49:03.972Z,97762.44
2023-04-22T00:51:51.359Z,97766.41
2023-04-22T00:54:38.995Z,97773.69
2023-04-22T00:57:26.393Z,97769.72
2023-04-22T01:00:16.272Z,97767.38
2023-04-22T01:03:07.365Z,97766.03
2023-04-22T01:05:55.201Z,97764.72
2023-04-22T01:08:43.596Z,97759.72
2023-04-22T01:11:31.629Z,97769.66
2023-04-22T01:14:19.223Z,97767.31
2023-04-22T01:17:10.194Z,97766.81
2023-04-22T01:19:57.966Z,97763.66
2023-04-22T01:22:47.796Z,97761.31
2023-04-22T01:25:37.569Z,97768.56
2023-04-22T01:28:26.110Z,97770.88
2023-04-22T01:31:14.123Z,97769.22
2023-04-22T01:34:02.369Z,97769.56
2023-04-22T01:36:50.751Z,97769.88
2023-04-22T01:39:39.607Z,97757.56
2023-04-22T01:42:29.286Z,97764.88
2023-04-22T01:45:17.485Z,97762.53
2023-04-22T01:48:06.877Z,97766.31
2023-04-22T01:50:54.948Z,97770.81
2023-04-22T01:53:42.855Z,97772.75
2023-04-22T01:56:30.748Z,97774.59
2023-04-22T01:59:21.510Z,97776.41
2023-04-22T02:02:09.361Z,97770.75
2023-04-22T02:04:57.032Z,97767.75
2023-04-22T02:07:44.813Z,97770.72
2023-04-22T02:10:32.926Z,97771.00
2023-04-22T02:13:20.807Z,97780.78
2023-04-22T02:16:10.828Z,97779.28
2023-04-22T02:18:58.540Z,97775.28
2023-04-22T02:21:46.054Z,97784.19
2023-04-22T02:24:33.410Z,97779.03
2023-04-22T02:27:21.030Z,97787.16
2023-04-22T02:30:09.856Z,97797.09
2023-04-22T02:32:58.721Z,97796.38
2023-04-22T02:35:46.653Z,97797.38
2023-04-22T02:38:34.200Z,97792.41
2023-04-22T02:41:21.806Z,97805.78
2023-04-22T02:44:09.632Z,97802.16
2023-04-22T02:46:57.099Z,97812.22
2023-04-22T02:49:45.911Z,97803.59
2023-04-22T02:52:35.430Z,97810.84
2023-04-22T02:55:25.796Z,97800.53
2023-04-22T02:58:13.208Z,97806.97
2023-04-22T03:01:00.936Z,97795.69
2023-04-22T03:03:48.681Z,97800.50
2023-04-22T03:06:37.648Z,97798.16
2023-04-22T03:09:25.700Z,97800.09
2023-04-22T03:12:13.211Z,97803.75
2023-04-22T03:15:00.790Z,97799.59
2023-04-22T03:17:48.152Z,97796.25
2023-04-22T03:20:36.086Z,97793.91
2023-04-22T03:23:24.814Z,97792.41
2023-04-22T03:26:13.589Z,97789.06
2023-04-22T03:29:01.192Z,97790.22
2023-04-22T03:31:48.880Z,97790.53
2023-04-22T03:34:37.308Z,97786.38
2023-04-22T03:37:24.999Z,97790.28
2023-04-22T03:40:14.418Z,97787.78
2023-04-22T03:43:03.646Z,97781.97
2023-04-22T03:45:53.083Z,97784.94
2023-04-22T03:48:42.529Z,97785.38
2023-04-22T03:51:30.213Z,97786.53
2023-04-22T03:54:17.952Z,97785.13
2023-04-22T03:57:07.157Z,97788.91
2023-04-22T03:59:54.749Z,97785.75
2023-04-22T04:02:42.654Z,97788.00
2023-04-22T04:05:30.315Z,97786.34
2023-04-22T04:08:18.106Z,97782.31
2023-04-22T04:11:06.181Z,97783.59
2023-04-22T04:13:55.018Z,97776.66
2023-04-22T04:16:42.906Z,97778.91
2023-04-22T04:19:30.538Z,97784.50
2023-04-22T04:22:18.331Z,97785.47
2023-04-22T04:25:07.648Z,97779.50
2023-04-22T04:27:55.441Z,97788.72
2023-04-22T04:30:44.307Z,97788.06
2023-04-22T04:33:32.769Z,97790.00
2023-04-22T04:36:20.400Z,97784.03
2023-04-22T04:39:09.484Z,97786.81
2023-04-22T04:41:58.923Z,97791.28
2023-04-22T04:44:47.431Z,97783.66
2023-04-22T04:47:36.566Z,97793.53
2023-04-22T04:50:24.455Z,97789.06
2023-04-22T04:53:13.693Z,97792.53
2023-04-22T04:56:01.479Z,97791.88
2023-04-22T04:58:48.920Z,97791.72
2023-04-22T05:01:36.784Z,97798.81
2023-04-22T05:04:26.305Z,97800.47
2023-04-22T05:07:14.246Z,97790.59
2023-04-22T05:10:02.044Z,97802.53
2023-04-22T05:12:49.892Z,97815.16
2023-04-22T05:15:37.595Z,97819.28
2023-04-22T05:18:25.395Z,97823.78
2023-04-22T05:21:14.170Z,97828.19
2023-04-22T05:24:02.289Z,97834.84
2023-04-22T05:26:50.185Z,97833.69
2023-04-22T05:29:38.252Z,97841.88
2023-04-22T05:32:26.136Z,97845.59
2023-04-22T05:35:14.059Z,97843.50
2023-04-22T05:38:04.046Z,97846.06
2023-04-22T05:40:51.750Z,97851.75
2023-04-22T05:43:39.067Z,97845.84
2023-04-22T05:46:26.907Z,97851.69
2023-04-22T05:49:14.702Z,97853.78
2023-04-22T05:52:05.349Z,97863.03
2023-04-22T05:54:54.220Z,97857.28
2023-04-22T05:57:41.683Z,97855.63
2023-04-22T06:00:29.323Z,97855.50
2023-04-22T06:03:17.352Z,97849.38
2023-04-22T06:06:06.259Z,97860.47
2023-04-22T06:08:54.117Z,97854.56
2023-04-22T06:11:43.148Z,97857.81
2023-04-22T06:14:30.944Z,97853.25
2023-04-22T06:17:18.418Z,97856.97
2023-04-22T06:20:07.492Z,97855.69
2023-04-22T06:22:55.122Z,97844.94
2023-04-22T06:25:42.651Z,97840.63
2023-04-22T06:28:31.777Z,97842.63
2023-04-22T06:31:21.047Z,97842.44
2023-04-22T06:34:08.574Z,97836.00
2023-04-22T06:36:56.030Z,97832.66
2023-04-22T06:39:43.466Z,97835.97
2023-04-22T06:42:31.046Z,97834.72
2023-04-22T06:45:21.100Z,97826.00
2023-04-22T06:48:08.819Z,97818.63
2023-04-22T06:50:57.346Z,97809.31
2023-04-22T06:53:52.631Z,97803.28
2023-04-22T06:56:40.496Z,97802.53
2023-04-22T06:59:28.037Z,97807.22
2023-04-22T07:02:17.224Z,97792.09
2023-04-22T07:05:04.954Z,97788.94
2023-04-22T07:07:52.662Z,97791.81
2023-04-22T07:10:40.757Z,97784.03
2023-04-22T07:13:29.049Z,97779.94
2023-04-22T07:16:16.646Z,97781.69
2023-04-22T07:19:05.979Z,97773.47
2023-04-22T07:21:53.877Z,97771.97
2023-04-22T07:24:41.645Z,97778.25
2023-04-22T07:27:29.596Z,97764.19
2023-04-22T07:30:17.622Z,97774.53
2023-04-22T07:33:05.593Z,97780.56
2023-04-22T07:35:54.789Z,97764.75
2023-04-22T07:38:42.264Z,97767.13
2023-04-22T07:41:29.767Z,97772.19
2023-04-22T07:44:21.542Z,97773.09
2023-04-22T07:47:09.357Z,97767.03
2023-04-22T07:49:56.865Z,97769.38
2023-04-22T07:52:45.815Z,97765.94
2023-04-22T07:55:33.444Z,97767.66
2023-04-22T07:58:21.291Z,97760.28
2023-04-22T08:01:09.030Z,97760.91
2023-04-22T08:03:57.521Z,97754.53
2023-04-22T08:06:45.690Z,97748.72
2023-04-22T08:09:34.594Z,97745.81
2023-04-22T08:12:22.223Z,97748.91
2023-04-22T08:15:10.896Z,97743.31
2023-04-22T08:17:58.913Z,97745.94
2023-04-22T08:20:48.692Z,97748.88
2023-04-22T08:23:36.622Z,97739.88
2023-04-22T08:26:25.869Z,97738.72
2023-04-22T08:29:14.794Z,97739.50
2023-04-22T08:32:02.522Z,97733.53
2023-04-22T08:34:51.822Z,97742.81
2023-04-22T08:37:41.675Z,97748.66
2023-04-22T08:40:29.193Z,97735.63
2023-04-22T08:43:22.558Z,97731.69
2023-04-22T08:46:10.406Z,97733.09
2023-04-22T08:49:03.674Z,97728.13
2023-04-22T08:51:53.002Z,97721.16
2023-04-22T08:54:41.041Z,97714.09
2023-04-22T08:57:29.839Z,97713.94
2023-04-22T09:00:20.551Z,97706.75
2023-04-22T09:03:09.513Z,97707.81
2023-04-22T09:05:58.996Z,97694.69
2023-04-22T09:08:47.335Z,97693.53
2023-04-22T09:11:35.854Z,97687.50
2023-04-22T09:14:24.094Z,97685.56
2023-04-22T09:17:16.679Z,97673.56
2023-04-22T09:20:06.872Z,97681.31
2023-04-22T09:22:55.500Z,97681.03
2023-04-22T09:25:46.578Z,97677.78
2023-04-22T09:28:38.487Z,97687.78
2023-04-22T09:31:28.271Z,97681.50
2023-04-22T09:34:17.543Z,97682.94
2023-04-22T09:37:06.780Z,97682.59
2023-04-22T09:39:55.327Z,97680.84
2023-04-22T09:42:51.825Z,97680.03
2023-04-22T09:45:41.158Z,97666.00
2023-04-22T09:48:28.802Z,97675.59
2023-04-22T09:51:19.687Z,97672.28
2023-04-22T09:54:10.502Z,97670.31
2023-04-22T09:56:58.631Z,97663.75
2023-04-22T09:59:46.480Z,97659.28
2023-04-22T10:02:34.106Z,97662.53
2023-04-22T10:05:21.744Z,97671.53
2023-04-22T10:08:11.815Z,97664.69
2023-04-22T10:10:59.270Z,97655.25
2023-04-22T10:13:46.796Z,97648.53
2023-04-22T10:16:36.586Z,97646.63
2023-04-22T10:19:26.737Z,97644.94
2023-04-22T10:22:15.352Z,97647.19
2023-04-22T10:25:09.795Z,97647.53
2023-04-22T10:28:05.003Z,97639.06
2023-04-22T10:30:52.709Z,97635.66
2023-04-22T10:33:42.022Z,97644.88
2023-04-22T10:36:30.365Z,97623.63
2023-04-22T10:39:19.082Z,97620.78
2023-04-22T10:42:12.097Z,97617.53
2023-04-22T10:45:05.256Z,97615.38
2023-04-22T10:47:52.781Z,97611.09
2023-04-22T10:55:00.700Z,97595.81
2023-04-22T10:57:51.881Z,97593.88
2023-04-22T11:00:53.257Z,97598.50
2023-04-22T11:03:41.984Z,97600.88
2023-04-22T11:06:31.161Z,97590.78
2023-04-22T11:09:18.853Z,97586.66
2023-04-22T11:12:40.066Z,97585.16
2023-04-22T11:15:32.265Z,97590.06
2023-04-22T11:18:23.928Z,97582.44
2023-04-22T11:21:12.065Z,97587.06
2023-04-22T11:24:02.942Z,97583.50
2023-04-22T11:26:50.527Z,97596.03
2023-04-22T11:29:38.448Z,97577.97
2023-04-22T11:32:29.226Z,97573.13
2023-04-22T11:35:20.476Z,97574.25
2023-04-22T11:38:08.834Z,97574.25
2023-04-22T11:40:58.489Z,97570.47
2023-04-22T11:43:49.219Z,97567.38
2023-04-22T11:46:39.455Z,97563.56
2023-04-22T11:49:28.625Z,97561.78
2023-04-22T11:52:16.359Z,97555.50
2023-04-22T11:55:03.847Z,97566.44
2023-04-22T11:57:57.310Z,97563.16
2023-04-22T12:00:49.580Z,97561.28
2023-04-22T12:03:37.705Z,97556.78
2023-04-22T12:06:32.268Z,97564.56
2023-04-22T12:09:20.191Z,97552.31
2023-04-22T12:12:08.060Z,97551.94
2023-04-22T12:14:57.941Z,97543.16
2023-04-22T12:17:47.227Z,97541.84
2023-04-22T12:20:36.150Z,97543.19
2023-04-22T12:23:25.131Z,97534.31
2023-04-22T12:26:13.961Z,97529.81
2023-04-22T12:29:02.408Z,97534.22
2023-04-22T12:31:50.092Z,97536.50
2023-04-22T12:34:37.842Z,97529.53
2023-04-22T12:37:25.360Z,97532.78
2023-04-22T12:40:14.558Z,97527.66
2023-04-22T12:43:05.995Z,97539.75
2023-04-22T12:45:54.054Z,97538.25
2023-04-22T12:48:42.817Z,97526.19
2023-04-22T12:51:30.943Z,97519.81
2023-04-22T12:54:18.408Z,97523.94
2023-04-22T12:57:07.547Z,97518.09
2023-04-22T12:59:55.691Z,97512.56
2023-04-22T13:02:44.138Z,97505.94
2023-04-22T13:05:31.850Z,97502.16
2023-04-22T13:08:19.462Z,97512.91
2023-04-22T13:11:07.345Z,97511.03
2023-04-22T13:13:56.157Z,97519.56
2023-04-22T13:16:44.028Z,97505.19
2023-04-22T13:19:32.310Z,97491.69
2023-04-22T13:22:20.165Z,97487.63
2023-04-22T13:25:09.717Z,97485.88
2023-04-22T13:27:57.494Z,97480.91
2023-04-22T13:30:46.519Z,97479.44
2023-04-22T13:33:34.019Z,97475.69
2023-04-22T13:36:21.749Z,97470.88
2023-04-22T13:39:09.585Z,97478.25
2023-04-22T13:41:57.945Z,97465.34
2023-04-22T13:44:45.693Z,97460.81
2023-04-22T13:47:34.712Z,97461.25
2023-04-22T13:50:22.647Z,97464.03
2023-04-22T13:53:11.779Z,97453.84
2023-04-22T13:56:00.682Z,97459.09
2023-04-22T13:58:48.864Z,97456.69
2023-04-22T14:01:37.894Z,97451.81
2023-04-22T14:04:26.942Z,97456.44
2023-04-22T14:07:14.888Z,97448.84
2023-04-22T14:10:11.506Z,97437.78
2023-04-22T14:12:59.119Z,97435.44
2023-04-22T14:15:46.618Z,97432.78
2023-04-22T14:18:36.181Z,97436.22
2023-04-22T14:21:27.373Z,97423.84
2023-04-22T14:24:15.691Z,97437.88
2023-04-22T14:27:03.331Z,97441.06
2023-04-22T14:29:52.372Z,97435.34
2023-04-22T14:32:40.190Z,97442.50
2023-04-22T14:35:27.854Z,97450.56
2023-04-22T14:38:16.918Z,97439.19
2023-04-22T14:41:05.974Z,97440.44
2023-04-22T14:43:53.810Z,97428.50
2023-04-22T14:46:41.468Z,97427.47
2023-04-22T14:49:30.179Z,97429.84
2023-04-22T14:52:20.662Z,97430.94
2023-04-22T14:55:21.917Z,97425.94
2023-04-22T14:58:10.617Z,97423.16
2023-04-22T15:00:59.705Z,97418.75
2023-04-22T15:03:48.831Z,97421.31
2023-04-22T15:06:36.831Z,97411.28
2023-04-22T15:09:25.295Z,97416.28
2023-04-22T15:12:14.328Z,97417.09
2023-04-22T15:15:02.009Z,97418.03
2023-04-22T15:17:49.549Z,97413.25
2023-04-22T15:20:37.337Z,97407.59
2023-04-22T15:23:26.589Z,97410.72
2023-04-22T15:26:15.344Z,97400.28
2023-04-22T15:29:04.501Z,97406.78
2023-04-22T15:31:54.452Z,97416.44
2023-04-22T15:34:42.107Z,97402.84
2023-04-22T15:37:29.652Z,97401.63
2023-04-22T15:40:17.482Z,97403.38
2023-04-22T15:43:05.307Z,97401.72
2023-04-22T15:45:54.340Z,97404.56
2023-04-22T15:48:46.988Z,97403.00
2023-04-22T15:51:34.809Z,97405.56
2023-04-22T15:54:22.260Z,97404.00
2023-04-22T15:57:09.752Z,97409.63
2023-04-22T16:00:09.490Z,97404.97
2023-04-22T16:03:00.963Z,97412.78
2023-04-22T16:05:48.813Z,97412.84
2023-04-22T16:08:36.212Z,97416.66
2023-04-22T16:11:23.621Z,97414.63
2023-04-22T16:14:12.188Z,97413.84
2023-04-22T16:16:59.972Z,97420.47
2023-04-22T16:19:48.762Z,97423.56
2023-04-22T16:22:37.059Z,97428.84
2023-04-22T16:25:24.716Z,97422.41
2023-04-22T16:28:12.448Z,97422.72
2023-04-22T16:31:00.225Z,97424.16
2023-04-22T16:33:48.019Z,97429.63
2023-04-22T16:36:36.969Z,97423.16
2023-04-22T16:39:25.450Z,97426.53
2023-04-22T16:42:13.464Z,97428.41
2023-04-22T16:45:01.225Z,97429.13
2023-04-22T16:47:48.923Z,97434.09
2023-04-22T16:50:36.444Z,97440.66
2023-04-22T16:53:25.308Z,97434.75
2023-04-22T16:56:12.782Z,97435.31
2023-04-22T16:59:01.420Z,97444.50
2023-04-22T17:01:48.849Z,97447.03
2023-04-22T17:04:36.584Z,97449.78
2023-04-22T17:07:24.177Z,97434.22
2023-04-22T17:10:13.080Z,97428.47
2023-04-22T17:13:00.745Z,97439.03
2023-04-22T17:15:48.203Z,97427.56
2023-04-22T17:18:35.686Z,97436.22
2023-04-22T17:21:23.476Z,97427.97
2023-04-22T17:24:11.224Z,97439.22
2023-04-22T17:27:00.131Z,97430.38
2023-04-22T17:29:47.814Z,97431.91
2023-04-22T17:32:36.221Z,97434.00
2023-04-22T17:35:24.166Z,97431.97
2023-04-22T17:38:11.920Z,97437.59
2023-04-22T17:40:59.892Z,97429.63
2023-04-22T17:43:49.007Z,97436.06
2023-04-22T17:46:36.875Z,97434.78
2023-04-22T17:49:24.689Z,97426.19
2023-04-22T17:52:12.629Z,97430.41
2023-04-22T17:55:00.290Z,97432.66
2023-04-22T17:57:48.288Z,97440.34
2023-04-22T18:00:38.261Z,97433.66
2023-04-22T18:03:26.164Z,97442.16
2023-04-22T18:06:14.276Z,97439.28
2023-04-22T18:09:01.969Z,97441.31
2023-04-22T18:11:49.472Z,97446.25
2023-04-22T18:14:37.102Z,97447.38
2023-04-22T18:17:26.079Z,97446.41
2023-04-22T18:20:18.714Z,97461.88
2023-04-22T18:23:06.440Z,97453.25
2023-04-22T18:25:54.416Z,97449.81
2023-04-22T18:28:43.470Z,97458.66
2023-04-22T18:31:31.292Z,97461.09
2023-04-22T18:34:20.104Z,97447.88
2023-04-22T18:37:07.860Z,97462.47
2023-04-22T18:39:55.261Z,97463.09
2023-04-22T18:42:44.699Z,97461.00
2023-04-22T18:45:32.634Z,97472.66
2023-04-22T18:48:22.349Z,97479.72
2023-04-22T18:51:12.286Z,97481.16
2023-04-22T18:54:00.136Z,97483.63
2023-04-22T18:56:47.597Z,97476.38
2023-04-22T18:59:35.208Z,97475.88
2023-04-22T19:02:23.203Z,97474.59
2023-04-22T19:05:11.289Z,97476.81
2023-04-22T19:08:00.760Z,97479.88
2023-04-22T19:10:48.313Z,97484.19
2023-04-22T19:13:35.856Z,97487.72
2023-04-22T19:16:25.660Z,97493.19
2023-04-22T19:19:13.778Z,97489.56
2023-04-22T19:22:01.600Z,97499.19
2023-04-22T19:24:51.232Z,97496.72
2023-04-22T19:27:39.249Z,97497.63
2023-04-22T19:30:27.794Z,97495.63
2023-04-22T19:33:17.621Z,97498.59
2023-04-22T19:36:05.908Z,97501.19
2023-04-22T19:38:53.317Z,97506.78
2023-04-22T19:41:42.067Z,97508.38
2023-04-22T19:44:30.390Z,97526.28
2023-04-22T19:47:18.621Z,97527.09
2023-04-22T19:50:09.288Z,97531.28
2023-04-22T19:53:04.296Z,97539.78
2023-04-22T19:55:53.678Z,97555.56
2023-04-22T19:58:44.126Z,97556.00
2023-04-22T20:01:32.614Z,97559.59
2023-04-22T20:04:21.677Z,97560.88
2023-04-22T20:07:12.133Z,97545.44
2023-04-22T20:10:01.892Z,97548.34
2023-04-22T20:12:50.756Z,97549.81
2023-04-22T20:15:40.586Z,97542.63
2023-04-22T20:18:28.586Z,97554.88
2023-04-22T20:21:17.024Z,97547.25
2023-04-22T20:24:06.252Z,97549.63
2023-04-22T20:26:54.584Z,97551.53
2023-04-22T20:29:45.072Z,97551.59
2023-04-22T20:32:34.702Z,97555.97
2023-04-22T20:35:22.946Z,97555.44
2023-04-22T20:38:15.013Z,97553.34
2023-04-22T20:41:04.843Z,97552.97
2023-04-22T20:43:52.684Z,97554.91
2023-04-22T20:46:40.380Z,97569.66
2023-04-22T20:49:29.625Z,97559.81
2023-04-22T20:52:17.591Z,97568.06
2023-04-22T20:55:06.616Z,97546.75
2023-04-22T20:57:54.158Z,97558.75
2023-04-22T21:00:41.853Z,97553.38
2023-04-22T21:03:30.981Z,97534.16
2023-04-22T21:06:21.854Z,97538.53
2023-04-22T21:09:10.527Z,97542.16
2023-04-22T21:11:58.805Z,97547.09
2023-04-22T21:14:47.877Z,97544.25
2023-04-22T21:17:38.750Z,97539.38
2023-04-22T21:20:28.898Z,97540.22
2023-04-22T21:23:20.018Z,97547.28
2023-04-22T21:26:09.344Z,97564.22
2023-04-22T21:28:57.540Z,97563.44
2023-04-22T21:31:51.540Z,97570.44
2023-04-22T21:34:45.947Z,97585.28
2023-04-22T21:37:34.313Z,97586.53
2023-04-22T21:40:24.058Z,97592.13
2023-04-22T21:43:11.699Z,97588.59
2023-04-22T21:45:59.198Z,97590.25
2023-04-22T21:48:47.167Z,97586.94
2023-04-22T21:51:34.971Z,97589.03
2023-04-22T21:54:22.924Z,97583.88
2023-04-22T21:57:11.972Z,97578.50
2023-04-22T21:59:59.578Z,97586.94
2023-04-22T22:02:47.769Z,97593.97
2023-04-22T22:05:36.044Z,97596.66
2023-04-22T22:08:23.982Z,97600.78
2023-04-22T22:11:20.251Z,97594.19
2023-04-22T22:14:17.113Z,97603.06
2023-04-22T22:17:05.312Z,97604.31
2023-04-22T22:19:52.653Z,97609.47
2023-04-22T22:22:41.278Z,97618.75
2023-04-22T22:25:29.150Z,97621.03
2023-04-22T22:28:16.989Z,97630.09
2023-04-22T22:31:06.884Z,97643.94
2023-04-22T22:33:54.478Z,97651.75
2023-04-22T22:36:41.932Z,97647.00
2023-04-22T22:39:29.607Z,97619.81
2023-04-22T22:42:17.068Z,97598.75
2023-04-22T22:45:05.584Z,97587.41
2023-04-22T22:47:54.534Z,97589.06
2023-04-22T22:50:42.521Z,97588.06
2023-04-22T22:53:30.143Z,97595.03
2023-04-22T22:56:20.813Z,97592.75
2023-04-22T22:59:08.608Z,97601.63
2023-04-22T23:01:56.391Z,97595.22
2023-04-22T23:04:45.658Z,97594.56
2023-04-22T23:07:33.474Z,97587.34
2023-04-22T23:10:21.196Z,97584.03
2023-04-22T23:13:08.868Z,97575.56
2023-04-22T23:15:56.157Z,97577.81
2023-04-22T23:18:46.352Z,97581.09
2023-04-22T23:21:37.438Z,97578.19
2023-04-22T23:24:25.858Z,97568.31
2023-04-22T23:27:14.608Z,97571.19
2023-04-22T23:30:03.058Z,97574.44
2023-04-22T23:32:54.803Z,97565.19
2023-04-22T23:35:44.038Z,97561.28
2023-04-22T23:38:33.156Z,97554.66
2023-04-22T23:41:20.920Z,97551.75
2023-04-22T23:44:08.714Z,97547.25
2023-04-22T23:46:56.585Z,97554.84
2023-04-22T23:49:44.088Z,97563.06
2023-04-22T23:52:31.546Z,97562.88
2023-04-22T23:55:21.634Z,97559.34
2023-04-22T23:58:09.433Z,97564.69
